Time;durP1;ratioP1;P1;durP2;ratioP2;P2;SDS_P1;SDS_P2;PMS_P1;PMS_P2;Temp;Humidity;BMP_temperature;BMP_pressure;BME280_temperature;BME280_humidity;BME280_pressure;Samples;Min_cycle;Max_cycle;Signal;HPM_P1;HPM_P2
2023/05/04 00:00:33;;;;;;;17.20;8.50;;;4.40;73.00;;;;;;6179424;23;20071;-95
2023/05/04 00:03:02;;;;;;;14.57;8.60;;;4.40;73.10;;;;;;6162760;23;20119;-94
2023/05/04 00:05:34;;;;;;;16.17;8.60;;;4.40;73.00;;;;;;6206509;23;20532;-96
2023/05/04 00:09:03;;;;;;;15.23;8.30;;;4.40;72.90;;;;;;6158337;23;20021;-93
2023/05/04 00:11:40;;;;;;;18.47;8.83;;;4.40;72.90;;;;;;6204152;23;20091;-94
2023/05/04 00:14:10;;;;;;;13.10;8.10;;;4.30;72.80;;;;;;6190467;23;20363;-93
2023/05/04 00:16:36;;;;;;;20.67;8.40;;;4.30;72.50;;;;;;6189266;23;20023;-93
2023/05/04 00:19:02;;;;;;;15.97;8.07;;;4.30;72.50;;;;;;6165289;23;20016;-94
2023/05/04 00:21:34;;;;;;;16.47;8.53;;;4.30;72.50;;;;;;6193900;23;20505;-93
2023/05/04 00:24:10;;;;;;;;;;;4.20;72.50;;;;;;6158551;23;20028;-94
2023/05/04 00:26:44;;;;;;;11.20;7.93;;;4.20;73.00;;;;;;6162666;23;19916;-94
2023/05/04 00:29:16;;;;;;;15.33;8.23;;;4.20;72.50;;;;;;6177748;23;20096;-93
2023/05/04 00:31:43;;;;;;;21.27;8.93;;;4.20;72.40;;;;;;6193838;23;20016;-94
2023/05/04 00:34:14;;;;;;;18.03;8.53;;;4.20;72.30;;;;;;6177762;23;20095;-93
2023/05/04 00:36:45;;;;;;;14.57;8.90;;;4.20;72.40;;;;;;6189510;23;20069;-93
2023/05/04 00:39:12;;;;;;;11.32;5.97;;;4.20;72.50;;;;;;6193353;23;20016;-94
2023/05/04 00:41:41;;;;;;;15.97;8.53;;;4.20;72.50;;;;;;6199910;23;20016;-94
2023/05/04 00:44:10;;;;;;;18.03;8.47;;;4.20;72.50;;;;;;6190863;23;20103;-94
2023/05/04 00:46:48;;;;;;;16.17;8.80;;;4.20;72.50;;;;;;6164877;23;20016;-94
2023/05/04 00:49:16;;;;;;;16.47;9.10;;;4.20;72.50;;;;;;6191230;23;20024;-93
2023/05/04 00:52:03;;;;;;;16.50;8.63;;;4.20;72.50;;;;;;6193653;23;20019;-94
2023/05/04 00:54:33;;;;;;;18.37;9.03;;;4.20;72.60;;;;;;6151476;23;20029;-95
2023/05/04 00:57:08;;;;;;;15.97;9.03;;;4.20;72.50;;;;;;6162704;23;20020;-95
2023/05/04 00:59:34;;;;;;;18.73;9.33;;;4.20;72.60;;;;;;6134302;23;20053;-94
2023/05/04 01:02:03;;;;;;;18.63;8.93;;;4.20;72.60;;;;;;6211463;23;20071;-95
2023/05/04 01:04:29;;;;;;;18.37;9.37;;;4.20;72.50;;;;;;6189224;23;20020;-93
2023/05/04 01:07:35;;;;;;;20.40;9.27;;;4.20;72.60;;;;;;6187251;23;20716;-94
2023/05/04 01:10:25;;;;;;;17.00;8.47;;;4.20;72.80;;;;;;6190789;23;20038;-93
2023/05/04 01:12:58;;;;;;;17.73;9.23;;;4.20;72.60;;;;;;6178494;23;20016;-95
2023/05/04 01:15:31;;;;;;;18.30;9.20;;;4.30;72.60;;;;;;6189308;23;20024;-94
2023/05/04 01:18:13;;;;;;;18.37;9.53;;;4.30;72.60;;;;;;6184611;23;20020;-94
2023/05/04 01:20:39;;;;;;;18.55;9.45;;;4.30;72.60;;;;;;6192757;23;20332;-93
2023/05/04 01:23:10;;;;;;;17.30;9.17;;;4.30;72.60;;;;;;6169705;23;20020;-94
2023/05/04 01:25:58;;;;;;;;;;;4.30;72.60;;;;;;6187401;23;20024;-94
2023/05/04 01:28:54;;;;;;;17.83;9.50;;;4.30;73.00;;;;;;6184565;23;19920;-94
2023/05/04 01:31:33;;;;;;;14.63;9.80;;;4.30;72.80;;;;;;6135316;23;20466;-94
2023/05/04 01:34:11;;;;;;;14.80;9.15;;;4.30;72.50;;;;;;6164236;22;20096;-95
2023/05/04 01:36:49;;;;;;;;;;;;;;;;;;;;;
2023/05/04 01:39:28;;;;;;;16.40;9.27;;;4.30;72.50;;;;;;6217594;23;20083;-94
2023/05/04 01:42:06;;;;;;;17.63;9.37;;;4.30;72.50;;;;;;6170388;23;20020;-95
2023/05/04 01:44:55;;;;;;;18.80;10.07;;;4.20;72.60;;;;;;6191468;23;20020;-94
2023/05/04 01:47:21;;;;;;;18.13;9.33;;;4.20;72.70;;;;;;6153570;22;20103;-94
2023/05/04 01:49:47;;;;;;;16.13;9.53;;;4.20;72.60;;;;;;6162651;23;20052;-95
2023/05/04 01:52:20;;;;;;;17.77;9.80;;;4.30;72.60;;;;;;6176325;22;20016;-95
2023/05/04 01:54:46;;;;;;;17.27;9.87;;;4.20;72.70;;;;;;6146606;23;20020;-94
2023/05/04 01:57:23;;;;;;;16.57;9.33;;;4.20;72.80;;;;;;6180659;23;20027;-95
2023/05/04 02:00:01;;;;;;;16.03;9.23;;;4.20;72.70;;;;;;6192131;23;20458;-95
2023/05/04 02:02:30;;;;;;;19.57;9.10;;;4.20;72.80;;;;;;6167997;23;20027;-91
2023/05/04 02:04:56;;;;;;;18.87;9.73;;;4.20;72.80;;;;;;6188801;23;20023;-93
2023/05/04 02:07:25;;;;;;;18.57;9.60;;;4.20;72.70;;;;;;6180151;23;20053;-93
2023/05/04 02:09:51;;;;;;;16.30;9.20;;;4.20;72.70;;;;;;6192644;23;20016;-94
2023/05/04 02:12:17;;;;;;;18.17;9.57;;;4.10;72.70;;;;;;6190874;22;20028;-93
2023/05/04 02:14:43;;;;;;;19.70;10.20;;;4.10;72.80;;;;;;6192548;23;20105;-94
2023/05/04 02:17:16;;;;;;;21.93;9.40;;;4.10;72.80;;;;;;6166348;23;20024;-96
2023/05/04 02:19:59;;;;;;;19.57;8.87;;;4.00;72.90;;;;;;6168492;23;20028;-94
2023/05/04 02:22:30;;;;;;;18.33;9.80;;;4.00;73.00;;;;;;6142226;23;20048;-94
2023/05/04 02:24:59;;;;;;;15.63;9.83;;;4.00;73.10;;;;;;6158848;23;20024;-94
2023/05/04 02:27:25;;;;;;;17.63;9.30;;;4.00;73.00;;;;;;6181894;23;20074;-94
2023/05/04 02:29:57;;;;;;;20.67;9.77;;;3.90;73.00;;;;;;6193617;23;20017;-94
2023/05/04 02:32:27;;;;;;;20.20;9.90;;;3.90;73.30;;;;;;6190425;22;20024;-93
2023/05/04 02:34:55;;;;;;;20.37;9.20;;;3.90;73.20;;;;;;6193028;23;20664;-93
2023/05/04 02:37:36;;;;;;;18.97;9.47;;;3.90;73.20;;;;;;6183272;23;20112;-93
2023/05/04 02:40:05;;;;;;;18.50;10.03;;;3.90;73.20;;;;;;6193124;23;20055;-93
2023/05/04 02:42:39;;;;;;;17.40;9.70;;;4.00;73.30;;;;;;6186534;23;20012;-93
2023/05/04 02:45:18;;;;;;;21.07;10.40;;;4.00;73.20;;;;;;6194612;23;20109;-95
2023/05/04 02:47:49;;;;;;;19.57;10.30;;;4.00;73.40;;;;;;6168808;23;20356;-93
2023/05/04 02:50:18;;;;;;;19.33;9.50;;;4.00;73.40;;;;;;6194433;23;20019;-94
2023/05/04 02:52:47;;;;;;;17.30;9.40;;;4.00;73.30;;;;;;6192460;23;20474;-93
2023/05/04 02:55:15;;;;;;;21.90;10.20;;;4.00;73.50;;;;;;6194446;23;20016;-93
2023/05/04 02:57:44;;;;;;;18.53;10.17;;;4.00;73.50;;;;;;6170438;22;20136;-93
2023/05/04 03:00:16;;;;;;;17.87;10.33;;;4.00;73.50;;;;;;6168678;23;20020;-95
2023/05/04 03:02:42;;;;;;;19.93;10.30;;;4.10;73.70;;;;;;6174212;23;20025;-93
2023/05/04 03:05:19;;;;;;;17.90;9.50;;;4.10;73.70;;;;;;6217522;23;20103;-94
2023/05/04 03:07:57;;;;;;;19.63;10.37;;;4.10;73.70;;;;;;6150812;23;20028;-94
2023/05/04 03:10:28;;;;;;;23.03;11.37;;;4.10;73.60;;;;;;6189358;23;20044;-94
2023/05/04 03:13:06;;;;;;;17.67;10.63;;;4.10;73.50;;;;;;6201002;23;20150;-95
2023/05/04 03:15:32;;;;;;;22.07;10.63;;;4.10;73.60;;;;;;6189249;23;20021;-93
2023/05/04 03:18:01;;;;;;;20.67;10.73;;;4.10;73.60;;;;;;6195991;23;20062;-93
2023/05/04 03:20:30;;;;;;;22.90;11.63;;;4.10;73.60;;;;;;6218046;23;20095;-94
2023/05/04 03:22:56;;;;;;;19.00;10.90;;;4.10;73.60;;;;;;6187903;23;20071;-94
2023/05/04 03:25:25;;;;;;;20.50;11.07;;;4.10;73.60;;;;;;6189286;23;20024;-94
2023/05/04 03:27:51;;;;;;;19.67;10.83;;;4.10;73.70;;;;;;6204795;23;20044;-92
2023/05/04 03:30:23;;;;;;;22.87;11.73;;;4.10;73.70;;;;;;6212836;23;20035;-93
2023/05/04 03:32:48;;;;;;;20.80;11.40;;;4.10;73.70;;;;;;6211516;23;20024;-92
2023/05/04 03:35:15;;;;;;;17.40;11.47;;;4.10;73.80;;;;;;6218235;23;20023;-93
2023/05/04 03:37:44;;;;;;;17.73;11.43;;;4.10;73.80;;;;;;6182995;23;20110;-94
2023/05/04 03:40:13;;;;;;;23.77;13.27;;;4.10;73.70;;;;;;6168035;23;20020;-94
2023/05/04 03:42:45;;;;;;;21.43;11.60;;;4.10;73.80;;;;;;6186664;23;20035;-93
2023/05/04 03:45:11;;;;;;;22.33;11.90;;;4.20;73.80;;;;;;6218323;23;20013;-94
2023/05/04 03:47:39;;;;;;;20.27;12.23;;;4.20;73.90;;;;;;6192047;23;20089;-93
2023/05/04 03:50:05;;;;;;;19.57;11.83;;;4.20;74.00;;;;;;6169241;23;20074;-93
2023/05/04 03:52:38;;;;;;;24.03;12.33;;;4.20;73.90;;;;;;6162381;23;20078;-94
2023/05/04 03:55:10;;;;;;;25.00;12.13;;;4.30;73.90;;;;;;6216360;23;20027;-94
2023/05/04 03:57:45;;;;;;;21.03;11.63;;;4.30;74.00;;;;;;6181482;23;20052;-93
2023/05/04 04:00:17;;;;;;;20.40;12.03;;;4.30;74.10;;;;;;6219159;23;20012;-94
2023/05/04 04:02:46;;;;;;;23.57;11.57;;;4.30;74.10;;;;;;6179373;23;20020;-94
2023/05/04 04:05:23;;;;;;;26.53;11.40;;;4.30;74.10;;;;;;6195992;23;20024;-93
2023/05/04 04:07:52;;;;;;;22.53;11.47;;;4.40;74.00;;;;;;6180433;23;20020;-94
2023/05/04 04:10:23;;;;;;;22.47;10.93;;;4.40;74.10;;;;;;6213819;23;20020;-94
2023/05/04 04:12:57;;;;;;;19.65;11.32;;;4.40;74.10;;;;;;6211977;23;20061;-93
2023/05/04 04:15:26;;;;;;;27.00;11.70;;;4.50;74.10;;;;;;6189058;23;20016;-94
2023/05/04 04:17:55;;;;;;;19.57;10.80;;;4.50;74.10;;;;;;6191523;23;20079;-94
2023/05/04 04:20:24;;;;;;;21.93;11.50;;;4.50;74.10;;;;;;6187867;23;20513;-93
2023/05/04 04:22:50;;;;;;;17.57;10.77;;;4.50;74.10;;;;;;6201856;23;20020;-93
2023/05/04 04:25:25;;;;;;;22.90;11.83;;;4.50;74.20;;;;;;6194197;23;20099;-94
2023/05/04 04:27:53;;;;;;;20.53;11.20;;;4.50;74.20;;;;;;6171249;23;20017;-93
2023/05/04 04:30:20;;;;;;;18.60;11.00;;;4.50;74.10;;;;;;6167455;23;20024;-93
2023/05/04 04:32:48;;;;;;;20.57;11.60;;;4.50;74.20;;;;;;6172547;23;20047;-94
2023/05/04 04:35:16;;;;;;;18.67;11.37;;;4.50;74.20;;;;;;6188498;23;20052;-94
2023/05/04 04:37:45;;;;;;;22.40;10.83;;;4.50;74.20;;;;;;6206897;23;20021;-93
2023/05/04 04:40:17;;;;;;;18.02;10.82;;;4.60;74.20;;;;;;6217481;23;20024;-94
2023/05/04 04:42:51;;;;;;;22.90;12.03;;;4.60;74.40;;;;;;6186320;23;20094;-93
2023/05/04 04:45:24;;;;;;;19.77;11.03;;;4.60;74.40;;;;;;6212402;23;20025;-94
2023/05/04 04:47:53;;;;;;;20.53;11.80;;;4.70;74.30;;;;;;6191859;23;20027;-94
2023/05/04 04:50:25;;;;;;;23.37;12.23;;;4.70;74.30;;;;;;6192819;23;20457;-95
2023/05/04 04:52:51;;;;;;;18.67;11.70;;;4.70;74.30;;;;;;6215523;23;20070;-93
2023/05/04 04:55:26;;;;;;;20.37;11.30;;;4.80;74.30;;;;;;6218514;23;20013;-93
2023/05/04 04:57:54;;;;;;;22.20;11.43;;;4.90;74.30;;;;;;6179791;23;20025;-94
2023/05/04 05:00:21;;;;;;;20.57;11.83;;;4.90;74.40;;;;;;6187552;23;20013;-94
2023/05/04 05:02:53;;;;;;;21.47;11.17;;;5.00;74.40;;;;;;6195451;23;20434;-94
2023/05/04 05:05:24;;;;;;;22.77;11.47;;;5.00;74.40;;;;;;6191899;23;20075;-94
2023/05/04 05:08:12;;;;;;;18.43;10.83;;;5.00;74.30;;;;;;6150691;23;20025;-95
2023/05/04 05:10:57;;;;;;;17.67;11.53;;;5.10;74.30;;;;;;6107451;23;20031;-95
2023/05/04 05:13:26;;;;;;;22.03;10.90;;;5.10;74.30;;;;;;6121723;23;20420;-94
2023/05/04 05:16:11;;;;;;;22.27;11.10;;;5.20;74.30;;;;;;6163319;23;20100;-95
2023/05/04 05:18:37;;;;;;;18.67;11.17;;;5.30;74.40;;;;;;6149515;23;20099;-94
2023/05/04 05:21:29;;;;;;;20.13;11.10;;;5.30;74.20;;;;;;6167575;23;20016;-93
2023/05/04 05:24:11;;;;;;;;;;;5.30;74.30;;;;;;6176250;23;20024;-95
2023/05/04 05:26:48;;;;;;;18.47;10.70;;;5.50;74.70;;;;;;6173998;23;19919;-95
2023/05/04 05:29:14;;;;;;;19.90;10.93;;;5.50;74.20;;;;;;6171624;23;20032;-94
2023/05/04 05:31:40;;;;;;;18.17;10.43;;;5.50;74.20;;;;;;6192298;23;20043;-93
2023/05/04 05:34:20;;;;;;;22.80;11.50;;;5.60;74.20;;;;;;6191245;23;20109;-94
2023/05/04 05:36:55;;;;;;;19.70;10.27;;;5.70;74.10;;;;;;6182978;23;20017;-94
2023/05/04 05:39:27;;;;;;;18.33;9.73;;;5.80;74.10;;;;;;6187394;23;20016;-96
2023/05/04 05:42:05;;;;;;;17.95;10.05;;;5.90;74.00;;;;;;6165350;23;20017;-95
2023/05/04 05:44:41;;;;;;;21.83;9.87;;;5.90;73.80;;;;;;6162706;23;20155;-94
2023/05/04 05:47:19;;;;;;;18.27;9.53;;;6.00;73.80;;;;;;6143229;23;20367;-96
2023/05/04 05:49:51;;;;;;;15.70;9.73;;;6.10;73.80;;;;;;6147832;23;20107;-95
2023/05/04 05:52:19;;;;;;;;;;;6.30;73.60;;;;;;6145687;23;20020;-94
2023/05/04 05:54:48;;;;;;;20.77;9.40;;;6.40;73.90;;;;;;6162164;23;19919;-94
2023/05/04 05:57:17;;;;;;;20.10;9.43;;;6.40;73.50;;;;;;6135933;23;20025;-94
2023/05/04 05:59:48;;;;;;;19.63;8.43;;;6.60;73.40;;;;;;6157033;23;20067;-95
2023/05/04 06:02:32;;;;;;;15.30;9.05;;;6.60;73.20;;;;;;6151306;23;20056;-94
2023/05/04 06:05:20;;;;;;;15.73;9.10;;;6.70;73.10;;;;;;6169699;23;20073;-93
2023/05/04 06:07:49;;;;;;;18.90;8.70;;;6.70;73.00;;;;;;6116559;23;20035;-95
2023/05/04 06:10:55;;;;;;;18.73;9.47;;;6.80;73.10;;;;;;6162180;23;20013;-95
2023/05/04 06:13:23;;;;;;;17.17;8.53;;;6.90;73.30;;;;;;6139345;23;20036;-95
2023/05/04 06:16:17;;;;;;;23.80;9.07;;;7.00;73.20;;;;;;6177290;23;20016;-95
2023/05/04 06:18:52;;;;;;;17.37;8.90;;;7.20;72.60;;;;;;6162502;23;20024;-90
2023/05/04 06:21:32;;;;;;;19.67;8.67;;;7.20;72.60;;;;;;6165818;23;20104;-95
2023/05/04 06:24:32;;;;;;;19.70;9.30;;;7.40;72.70;;;;;;6165864;23;20044;-96
2023/05/04 06:27:14;;;;;;;15.83;8.70;;;7.50;72.50;;;;;;6161726;23;20072;-96
2023/05/04 06:29:52;;;;;;;16.48;8.70;;;7.60;72.40;;;;;;6163736;23;20024;-94
2023/05/04 06:32:21;;;;;;;17.20;8.90;;;7.70;71.70;;;;;;6136656;23;20104;-90
2023/05/04 06:34:46;;;;;;;20.83;9.50;;;7.80;71.80;;;;;;6162047;23;20016;-90
2023/05/04 06:38:12;;;;;;;18.60;8.83;;;7.80;71.80;;;;;;6155392;23;20062;-96
2023/05/04 06:40:48;;;;;;;16.80;9.37;;;7.90;71.50;;;;;;6176226;23;20021;-92
2023/05/04 06:43:14;;;;;;;16.33;8.67;;;7.90;71.10;;;;;;6099653;23;20491;-91
2023/05/04 06:45:43;;;;;;;15.50;9.03;;;7.90;70.80;;;;;;6139983;23;20017;-91
2023/05/04 06:48:14;;;;;;;16.40;8.70;;;7.90;70.90;;;;;;6152459;23;20024;-93
2023/05/04 06:50:41;;;;;;;14.50;8.60;;;8.00;71.10;;;;;;6164504;23;20012;-92
2023/05/04 06:53:08;;;;;;;19.50;9.10;;;8.00;71.40;;;;;;6137604;23;20114;-91
2023/05/04 06:55:37;;;;;;;18.57;9.20;;;8.10;71.20;;;;;;6163587;23;20079;-92
2023/05/04 06:58:05;;;;;;;21.00;9.27;;;8.20;71.00;;;;;;6127859;23;20021;-92
2023/05/04 07:00:31;;;;;;;16.47;9.07;;;8.20;71.10;;;;;;6139749;23;20016;-91
2023/05/04 07:03:16;;;;;;;18.97;9.27;;;8.30;70.80;;;;;;6162965;23;20021;-95
2023/05/04 07:05:59;;;;;;;18.77;8.57;;;8.30;70.50;;;;;;6167339;23;20020;-95
2023/05/04 07:12:31;;;;;;;15.47;8.73;;;8.50;70.00;;;;;;6017610;23;20533;-92
2023/05/04 07:15:22;;;;;;;18.27;9.05;;;8.50;70.50;;;;;;6166992;23;20044;-96
2023/05/04 07:18:08;;;;;;;18.23;9.33;;;8.60;70.70;;;;;;6061721;23;20588;-93
2023/05/04 07:20:53;;;;;;;20.30;9.50;;;8.70;70.80;;;;;;6089397;23;20048;-95
2023/05/04 07:23:42;;;;;;;19.03;9.10;;;8.80;71.00;;;;;;6020459;23;20128;-94
2023/05/04 07:26:17;;;;;;;16.90;8.73;;;9.00;70.40;;;;;;6110056;23;20474;-95
2023/05/04 07:28:43;;;;;;;19.57;9.53;;;9.00;70.50;;;;;;6100427;23;20028;-94
2023/05/04 07:31:33;;;;;;;18.67;8.80;;;9.00;70.10;;;;;;6154081;23;20017;-96
2023/05/04 07:34:45;;;;;;;18.03;8.23;;;9.10;70.00;;;;;;6138450;23;20388;-94
2023/05/04 07:37:34;;;;;;;19.87;9.47;;;9.10;70.00;;;;;;6148246;23;20027;-94
2023/05/04 07:44:55;;;;;;;18.87;9.27;;;9.10;69.80;;;;;;6094472;23;20124;-94
2023/05/04 07:47:30;;;;;;;17.03;8.50;;;9.20;69.60;;;;;;5993949;23;20061;-96
2023/05/04 07:53:19;;;;;;;16.97;8.97;;;9.30;70.00;;;;;;6176998;23;20131;-94
2023/05/04 07:55:59;;;;;;;17.00;8.63;;;9.50;70.20;;;;;;6154274;23;20175;-91
2023/05/04 07:58:34;;;;;;;17.97;8.33;;;9.60;70.00;;;;;;6115544;23;20032;-94
2023/05/04 08:01:14;;;;;;;19.10;8.63;;;9.60;69.60;;;;;;6130428;23;20844;-93
2023/05/04 08:03:52;;;;;;;18.30;7.50;;;9.70;69.70;;;;;;6087328;23;20298;-93
2023/05/04 08:06:30;;;;;;;15.00;7.22;;;9.80;69.60;;;;;;6128930;23;20032;-94
2023/05/04 08:09:24;;;;;;;14.77;7.30;;;9.90;68.70;;;;;;6148791;23;20028;-94
2023/05/04 08:11:53;;;;;;;12.73;7.07;;;10.00;68.50;;;;;;6142078;23;20020;-93
2023/05/04 08:14:49;;;;;;;14.13;7.17;;;10.00;68.50;;;;;;6151112;23;20028;-94
2023/05/04 08:17:19;;;;;;;15.00;7.27;;;10.10;67.50;;;;;;6110013;23;20233;-93
2023/05/04 08:19:50;;;;;;;14.70;7.00;;;10.10;68.10;;;;;;6106733;23;20035;-94
2023/05/04 08:22:16;;;;;;;16.52;7.35;;;10.20;67.90;;;;;;6135526;23;20020;-92
2023/05/04 08:25:46;;;;;;;14.47;7.57;;;10.20;67.50;;;;;;6154539;23;20071;-94
2023/05/04 08:28:20;;;;;;;16.13;6.73;;;10.30;66.60;;;;;;5957014;23;20034;-93
2023/05/04 08:31:24;;;;;;;14.93;7.40;;;10.30;66.60;;;;;;6029977;23;20050;-95
2023/05/04 08:33:56;;;;;;;15.90;6.93;;;10.40;67.80;;;;;;5958068;23;20027;-95
2023/05/04 08:44:19;;;;;;;12.70;7.13;;;10.80;67.80;;;;;;5945042;24;20023;-94
2023/05/04 08:47:18;;;;;;;14.83;7.83;;;10.90;67.60;;;;;;5993825;23;20014;-92
2023/05/04 08:49:44;;;;;;;14.33;7.77;;;11.00;67.70;;;;;;5950524;23;20027;-92
2023/05/04 08:52:26;;;;;;;14.23;7.67;;;11.10;67.80;;;;;;5940390;23;20079;-96
2023/05/04 09:01:23;;;;;;;17.70;7.93;;;11.50;66.10;;;;;;6111354;23;19927;-91
2023/05/04 09:03:52;;;;;;;12.13;7.57;;;11.50;67.10;;;;;;6010531;23;20025;-89
2023/05/04 09:09:56;;;;;;;11.77;7.18;;;11.70;66.80;;;;;;6051294;23;20061;-91
2023/05/04 09:12:31;;;;;;;13.25;6.90;;;11.90;67.00;;;;;;6016646;23;20449;-94
2023/05/04 09:15:05;;;;;;;14.05;7.78;;;12.00;66.80;;;;;;6057886;23;20018;-91
2023/05/04 09:18:31;;;;;;;;;;;;;;;;;;;;;
2023/05/04 09:21:05;;;;;;;14.70;7.43;;;12.10;65.90;;;;;;6141774;23;20025;-90
2023/05/04 09:23:50;;;;;;;11.32;6.85;;;12.10;66.40;;;;;;6139475;23;20057;-89
2023/05/04 09:26:46;;;;;;;11.98;7.25;;;12.10;65.50;;;;;;6117598;23;20025;-93
2023/05/04 09:29:15;;;;;;;12.45;6.60;;;12.20;66.50;;;;;;6103427;23;20029;-91
2023/05/04 09:31:54;;;;;;;11.77;6.93;;;12.30;65.60;;;;;;6126571;23;20016;-92
2023/05/04 09:34:54;;;;;;;12.32;6.78;;;12.50;66.10;;;;;;6126399;23;20059;-92
2023/05/04 09:38:06;;;;;;;11.30;6.63;;;12.80;66.20;;;;;;6133882;23;20050;-95
2023/05/04 09:40:52;;;;;;;11.32;6.57;;;13.00;65.40;;;;;;6153726;23;20032;-91
2023/05/04 09:43:45;;;;;;;14.07;6.03;;;13.00;65.20;;;;;;6128279;23;20028;-92
2023/05/04 09:46:21;;;;;;;10.95;6.38;;;13.00;65.00;;;;;;6124646;23;20016;-92
2023/05/04 09:49:01;;;;;;;12.25;5.97;;;13.10;64.20;;;;;;6130288;23;20795;-92
2023/05/04 09:51:37;;;;;;;10.43;5.90;;;13.10;64.70;;;;;;6153549;23;20451;-91
2023/05/04 09:54:20;;;;;;;17.20;6.18;;;13.30;64.80;;;;;;6109430;23;20080;-96
2023/05/04 09:57:12;;;;;;;13.32;6.07;;;13.30;64.30;;;;;;6124177;23;20012;-90
2023/05/04 09:59:39;;;;;;;10.73;6.00;;;13.40;64.30;;;;;;6149596;23;20514;-93
2023/05/04 10:02:08;;;;;;;12.93;6.10;;;13.50;63.80;;;;;;6150227;23;20033;-90
2023/05/04 10:04:38;;;;;;;12.48;6.20;;;13.50;64.00;;;;;;6153063;23;20032;-92
2023/05/04 10:07:08;;;;;;;13.07;5.95;;;13.50;64.10;;;;;;6134821;23;20229;-94
2023/05/04 10:13:56;;;;;;;11.68;6.40;;;13.80;63.20;;;;;;6040887;23;20034;-95
2023/05/04 10:17:07;;;;;;;12.27;5.85;;;14.00;61.70;;;;;;6012137;23;20023;-92
2023/05/04 10:20:33;;;;;;;14.40;5.80;;;14.10;63.00;;;;;;6077500;23;20028;-96
2023/05/04 10:23:20;;;;;;;15.35;6.22;;;14.30;63.00;;;;;;6148879;23;20075;-92
2023/05/04 10:26:31;;;;;;;9.98;5.63;;;14.30;62.50;;;;;;6150832;23;20706;-92
2023/05/04 10:29:11;;;;;;;13.68;5.80;;;14.30;61.70;;;;;;6131173;23;20047;-90
2023/05/04 10:31:41;;;;;;;14.32;5.80;;;14.40;61.30;;;;;;6151083;23;20171;-91
2023/05/04 10:34:08;;;;;;;12.32;5.75;;;14.50;62.30;;;;;;6135330;23;20031;-90
2023/05/04 10:36:41;;;;;;;10.88;5.85;;;14.60;62.30;;;;;;6172651;23;20027;-95
2023/05/04 10:40:00;;;;;;;11.85;6.05;;;14.70;61.70;;;;;;6180078;23;20023;-91
2023/05/04 10:42:26;;;;;;;12.13;5.30;;;14.70;60.40;;;;;;6050147;23;20365;-91
2023/05/04 10:44:55;;;;;;;12.38;5.20;;;14.80;61.30;;;;;;6207988;23;20054;-92
2023/05/04 10:47:32;;;;;;;12.65;6.03;;;14.80;61.30;;;;;;6176326;23;20020;-92
2023/05/04 10:50:13;;;;;;;12.15;5.47;;;14.80;61.00;;;;;;6183185;23;20020;-91
2023/05/04 10:52:55;;;;;;;11.20;5.68;;;14.90;61.40;;;;;;6179678;23;20074;-93
2023/05/04 10:55:22;;;;;;;16.27;5.63;;;14.90;60.20;;;;;;6181506;23;20051;-91
2023/05/04 10:57:58;;;;;;;10.48;5.20;;;14.90;60.60;;;;;;6145709;23;20024;-90
2023/05/04 11:00:39;;;;;;;12.40;5.45;;;15.00;61.40;;;;;;6182357;23;20027;-91
2023/05/04 11:03:08;;;;;;;11.50;5.22;;;15.10;61.70;;;;;;6147614;23;20016;-90
2023/05/04 11:05:51;;;;;;;14.73;5.85;;;15.30;61.70;;;;;;6159372;23;20103;-92
2023/05/04 11:08:29;;;;;;;11.90;5.32;;;15.40;61.20;;;;;;6175272;23;20279;-91
2023/05/04 11:11:06;;;;;;;12.90;5.30;;;15.40;61.60;;;;;;6183299;23;20031;-93
2023/05/04 11:13:43;;;;;;;12.38;5.40;;;15.50;62.10;;;;;;6122686;23;20024;-91
2023/05/04 11:16:26;;;;;;;9.75;4.95;;;15.60;61.30;;;;;;6178148;23;20024;-96
2023/05/04 11:19:21;;;;;;;11.30;5.13;;;15.60;59.20;;;;;;6161869;23;20020;-91
2023/05/04 11:21:54;;;;;;;12.15;5.47;;;15.60;59.80;;;;;;6234472;23;20351;-91
2023/05/04 11:24:20;;;;;;;10.40;5.57;;;15.60;60.30;;;;;;6140898;23;20526;-91
2023/05/04 11:26:57;;;;;;;11.15;5.20;;;15.60;59.90;;;;;;6177486;23;20054;-90
2023/05/04 11:29:31;;;;;;;11.10;5.47;;;15.60;60.40;;;;;;6128925;23;20566;-92
2023/05/04 11:32:33;;;;;;;13.85;5.25;;;15.70;60.20;;;;;;6161997;23;20442;-93
2023/05/04 11:35:16;;;;;;;10.60;4.97;;;15.80;59.40;;;;;;6199482;22;20020;-91
2023/05/04 11:37:45;;;;;;;12.32;5.22;;;15.80;59.00;;;;;;6173541;23;20047;-92
2023/05/04 11:40:19;;;;;;;8.82;4.65;;;15.80;59.70;;;;;;6159380;23;20070;-93
2023/05/04 11:42:55;;;;;;;;;;;;;;;;;;;;;
2023/05/04 11:45:40;;;;;;;10.32;5.63;;;16.00;59.80;;;;;;6207928;23;20074;-91
2023/05/04 11:48:15;;;;;;;10.38;5.63;;;16.00;59.60;;;;;;6149611;23;20055;-91
2023/05/04 11:50:56;;;;;;;;;;;;;;;;;;;;;
2023/05/04 11:53:23;;;;;;;6.40;5.13;;;16.00;59.00;;;;;;6171531;23;20016;-92
2023/05/04 11:56:10;;;;;;;;;;;;;;;;;;;;;
2023/05/04 11:58:37;;;;;;;11.05;5.28;;;16.10;59.10;;;;;;6179922;23;20070;-93
2023/05/04 12:01:05;;;;;;;12.57;5.13;;;16.10;59.00;;;;;;6182225;23;20020;-92
2023/05/04 12:03:58;;;;;;;10.55;5.30;;;16.10;58.80;;;;;;6130298;23;20024;-92
2023/05/04 12:06:45;;;;;;;11.00;5.28;;;16.10;58.50;;;;;;6200917;23;20020;-90
2023/05/04 12:09:25;;;;;;;10.00;5.22;;;16.10;57.90;;;;;;6139031;23;20020;-92
2023/05/04 12:12:00;;;;;;;7.65;4.85;;;16.10;58.70;;;;;;6182798;23;20465;-90
2023/05/04 12:14:30;;;;;;;7.50;4.93;;;16.20;58.20;;;;;;6163848;23;20031;-92
2023/05/04 12:17:02;;;;;;;11.32;5.82;;;16.40;58.90;;;;;;6143827;23;20055;-92
2023/05/04 12:20:18;;;;;;;12.10;5.75;;;16.40;58.80;;;;;;6111882;23;20035;-92
2023/05/04 12:22:52;;;;;;;12.25;5.72;;;16.50;59.10;;;;;;6077625;23;20016;-93
2023/05/04 12:25:29;;;;;;;;;;;;;;;;;;;;;
2023/05/04 12:28:25;;;;;;;5.75;4.18;;;16.60;58.20;;;;;;6168353;23;20032;-94
2023/05/04 12:34:26;;;;;;;10.18;4.85;;;16.70;56.20;;;;;;6180096;23;20027;-93
2023/05/04 12:37:10;;;;;;;;;;;;;;;;;;;;;
2023/05/04 12:39:45;;;;;;;11.98;5.45;;;16.80;57.70;;;;;;6126707;23;20052;-93
2023/05/04 12:42:37;;;;;;;9.15;4.85;;;16.80;57.30;;;;;;6100392;23;20271;-94
2023/05/04 12:45:21;;;;;;;;;;;;;;;;;;;;;
2023/05/04 12:47:49;;;;;;;12.13;5.10;;;16.90;57.00;;;;;;6071981;23;20017;-93
2023/05/04 12:50:30;;;;;;;10.93;5.20;;;16.90;56.90;;;;;;6098961;23;20021;-92
2023/05/04 12:52:55;;;;;;;9.67;4.93;;;16.90;55.60;;;;;;6118903;23;20017;-91
2023/05/04 12:55:41;;;;;;;12.73;5.35;;;16.90;56.70;;;;;;6122315;23;20108;-92
2023/05/04 12:58:10;;;;;;;9.25;5.93;;;16.90;56.80;;;;;;6085326;23;20029;-92
2023/05/04 13:00:54;;;;;;;10.02;5.40;;;17.00;56.70;;;;;;6073973;23;20028;-92
2023/05/04 13:03:23;;;;;;;15.55;6.43;;;17.00;57.00;;;;;;6119262;23;20045;-94
2023/05/04 13:05:56;;;;;;;12.70;5.80;;;17.00;56.70;;;;;;6099909;23;20028;-92
2023/05/04 13:08:30;;;;;;;10.18;5.50;;;17.00;56.90;;;;;;6064064;23;20020;-93
2023/05/04 13:10:56;;;;;;;11.30;5.35;;;17.00;57.00;;;;;;6100308;23;20365;-90
2023/05/04 13:13:29;;;;;;;12.80;6.00;;;17.10;57.50;;;;;;6120930;23;20043;-91
2023/05/04 13:15:58;;;;;;;8.75;5.40;;;17.20;56.70;;;;;;6102884;23;20072;-91
2023/05/04 13:18:27;;;;;;;10.52;5.68;;;17.20;56.60;;;;;;6066812;23;20025;-90
2023/05/04 13:21:47;;;;;;;8.75;5.25;;;17.20;56.80;;;;;;6115756;23;20367;-93
2023/05/04 13:24:20;;;;;;;9.82;5.47;;;17.40;55.00;;;;;;6102210;23;20088;-93
2023/05/04 13:26:51;;;;;;;8.25;4.80;;;17.40;56.50;;;;;;6119644;23;20021;-92
2023/05/04 13:29:16;;;;;;;8.88;5.15;;;17.50;56.70;;;;;;6121509;23;20088;-89
2023/05/04 13:31:42;;;;;;;14.60;5.82;;;17.50;56.40;;;;;;6122610;23;20016;-92
2023/05/04 13:34:47;;;;;;;12.75;5.10;;;17.50;55.90;;;;;;6105753;23;20017;-91
2023/05/04 13:37:17;;;;;;;11.80;5.07;;;17.50;55.40;;;;;;6117136;23;20024;-92
2023/05/04 13:40:07;;;;;;;14.60;5.03;;;17.50;55.80;;;;;;6127289;23;20016;-91
2023/05/04 13:42:38;;;;;;;11.65;5.18;;;17.50;55.40;;;;;;6111758;23;20021;-93
2023/05/04 13:45:17;;;;;;;;;;;;;;;;;;;;;
2023/05/04 13:47:53;;;;;;;8.82;5.03;;;17.30;55.40;;;;;;6146158;23;20570;-92
2023/05/04 13:50:42;;;;;;;6.82;4.78;;;17.20;55.50;;;;;;6080433;23;20320;-92
2023/05/04 13:53:10;;;;;;;11.25;4.90;;;17.30;55.70;;;;;;6149467;23;20027;-91
2023/05/04 13:55:38;;;;;;;13.30;4.88;;;17.30;55.80;;;;;;6151687;23;20016;-93
2023/05/04 13:58:07;;;;;;;9.10;4.25;;;17.40;55.60;;;;;;6146168;23;20039;-92
2023/05/04 14:00:33;;;;;;;11.52;4.28;;;17.50;55.40;;;;;;6150884;23;20024;-92
2023/05/04 14:03:04;;;;;;;10.38;5.10;;;17.60;55.20;;;;;;6124293;23;20026;-92
2023/05/04 14:05:34;;;;;;;;;;;17.80;55.40;;;;;;6098338;23;20020;-91
2023/05/04 14:08:03;;;;;;;9.35;4.65;;;17.80;53.90;;;;;;6103100;23;19915;-91
2023/05/04 14:10:34;;;;;;;8.95;4.50;;;17.80;55.70;;;;;;6126497;23;20310;-91
2023/05/04 14:13:15;;;;;;;8.23;4.55;;;17.80;55.60;;;;;;6104076;23;20041;-92
2023/05/04 14:15:49;;;;;;;11.18;4.53;;;17.90;55.40;;;;;;6106402;23;20365;-93
2023/05/04 14:18:15;;;;;;;10.73;5.00;;;17.80;55.30;;;;;;6079633;23;20185;-92